Imnaha, Oregon
Current Conditions -  °F | °C
As of 7:15 PM on Wednesday 22 Oct 2014 (Local Time) from KGIC Reporting Station
Broken Clouds Broken Clouds  
Wind Chill: 57°   Ceiling: 8000
Heat Index: 57°   Visibility: 10mi
Dew Point: 31°   Wind: 3mph
Humidity: 38%   Direction: 180°S
Pressure: 29.93"   Gusts: NA
Location:  45.56°N, 116.83°W
Report Text: KGIC 230215Z AUTO 18003KT 10SM BKN080 14/00 A2993 RMK AO1 T01371003
Loading
Personal Weather Stations






























Interactive Weather Map
Tropical Storm Tracking
New forecast layout! Learn more

10-Day Weather Forecast

Advertisements
Track Severe Weather on mobile